Hit Tracker is now ESPN Home Run Tracker! Hit Tracker founder Greg Rybarczyk is now collaborating with the ESPN Stats & Information Group to continue tracking all MLB home runs, and helping baseball fans know "How Far It Really Went!™" Please credit any information on this site to ESPN Stats & Information Group. For more information and analysis on home runs, please contact founder Greg Rybarczyk. E-Mail ESPN Home Run Tracker
Main Page | Ballparks | Park Overlays | Glossary | Highlight Homers | Feedback | Bio | 3 Types of HR's | AAA Home Run Derby Last Updated: August 30, 2014, 9:32 pm PST
Welcome to the ESPN Home Run Tracker! Check out the ESPN MLB Scoreboard throughout the 2014 season! Contact us at grybar@hittrackeronline.com.
Season:
Ballpark detail for O.co Coliseum
Ballpark # of Home Runs HR per game Avg.
True
Distance
Avg.
Speed
Off
Bat
Avg.
Std.
Dist.
O.co Coliseum 122 1.85 387.5 101.9 386.9

Scatter Plot of Home Runs O.co Coliseum
 Overlay Ballpark:
Without range rings   With range rings

2014 Season Home Runs for O.co Coliseum
Click headers to sort
Date Video Path Hitter Hitter
Team
Pitcher Pitcher
Team
 ^
INN Ballpark Type/
Luck
True
Dist.
Speed
Off
Bat
Elev.
Angle
Horiz.
Angle
Apex Impact Due To: Std.
Dist.
#
Parks
Wind Temp. Alt.
05/09/14 Video View Jaso, John OAK Fister, Doug WSH 3 O.co Coliseu... JE 398 100.6 26.9 82.1 87 0 -2 0 400 15
05/09/14 Video View Moss, Brandon OAK Fister, Doug WSH 5 O.co Coliseu... JE 410 102.4 25.0 91.6 83 0 -1 0 411 15
05/09/14 Video View Cespedes, Yoenis OAK Fister, Doug WSH 5 O.co Coliseu... PL 351 95.8 33.0 62.5 93 0 -2 0 353 23
05/10/14 Video View Jaso, John OAK Roark, Tanner WSH 3 O.co Coliseu... JE/L 384 98.3 36.2 80.7 131 12 -2 0 373 0
05/11/14 Video View Norris, Derek OAK Gonzalez, Gio WSH 1 O.co Coliseu... PL 390 102.1 26.7 107.7 78 0 0 0 390 30
05/11/14 Video View Norris, Derek OAK Gonzalez, Gio WSH 2 O.co Coliseu... PL 364 100.7 29.7 119.8 84 0 -8 0 372 30
07/05/14 Video View Donaldson, Josh OAK Buehrle, Mark TOR 3 O.co Coliseu... PL 432 105.0 28.4 89.8 110 0 -1 0 433 28
04/21/14 Video View Moss, Brandon OAK Darvish, Yu TEX 2 O.co Coliseu... PL 368 103.0 38.6 65.4 145 12 -5 0 360 26
06/16/14 Video View Moss, Brandon OAK Lewis, Colby TEX 5 O.co Coliseu... ND 447 112.2 27.9 72.1 106 3 -3 0 447 30
06/16/14 Video View Cespedes, Yoenis OAK Ross, Robbie TEX 6 O.co Coliseu... ND 427 108.0 26.7 104.5 93 0 -2 0 429 30
06/17/14 Video View Norris, Derek OAK Tolleson, Shawn TEX 6 O.co Coliseu... PL 388 105.3 25.5 114.2 70 0 -1 0 389 30
08/06/14 Video View Sogard, Eric OAK Hellickson, Jeremy TB 6 O.co Coliseu... PL 349 95.6 33.0 58.9 89 0 0 0 349 28
04/03/14 Video View Crisp, Coco OAK Noesi, Hector SEA 12 O.co Coliseu... JE 378 100.6 26.6 71.8 76 0 -2 0 380 23
04/05/14 Video View Lowrie, Jed OAK Hernandez, Felix SEA 9 O.co Coliseu... JE 390 101.7 24.4 79.7 72 0 -1 0 391 11
04/06/14 Video View Moss, Brandon OAK Ramirez, Erasmo SEA 3 O.co Coliseu... PL 407 104.0 24.8 79.7 78 0 0 0 407 27
04/06/14 Video View Cespedes, Yoenis OAK Medina, Yoervis SEA 8 O.co Coliseu... JE 397 100.1 27.3 82.0 88 0 0 0 397 14
05/05/14 Video View Moss, Brandon OAK Young, Chris SEA 4 O.co Coliseu... PL 401 101.6 31.6 74.5 110 6 -3 0 397 30
05/06/14 Video View Cespedes, Yoenis OAK Elias, Roenis SEA 6 O.co Coliseu... PL 356 98.0 36.3 114.0 119 1 -3 0 358 20
05/07/14 Video View Cespedes, Yoenis OAK Ramirez, Erasmo SEA 4 O.co Coliseu... JE 391 105.5 25.3 112.3 71 0 -1 0 392 30
05/30/14 Video View Trout, Mike LAA Pomeranz, Drew OAK 4 O.co Coliseu... PL 419 106.5 22.5 95.1 73 0 -1 0 420 25
05/30/14 Video View Kendrick, Howard LAA Pomeranz, Drew OAK 4 O.co Coliseu... JE 384 107.0 23.7 114.8 63 0 -1 0 385 30
05/31/14 Video View Cowgill, Collin LAA Milone, Tommy OAK 4 O.co Coliseu... PL 396 103.1 32.9 109.4 117 2 -3 0 396 30
05/28/14 Video View Hunter, Torii DET Kazmir, Scott OAK 4 O.co Coliseu... JE 390 99.1 27.8 80.4 87 0 0 0 390 10
05/27/14 Video View Hunter, Torii DET Otero, Dan OAK 7 O.co Coliseu... JE 410 104.3 22.2 89.8 71 0 0 0 410 6
05/27/14 Video View Cabrera, Miguel DET Gray, Sonny OAK 3 O.co Coliseu... PL 399 103.8 33.5 111.2 120 5 -1 0 395 30
04/02/14 Video View Aviles, Mike CLE Lindblom, Josh OAK 4 O.co Coliseu... JE 363 105.4 23.2 119.7 55 0 -1 0 365 18
04/05/14 Video View Ackley, Dustin SEA Straily, Dan OAK 5 O.co Coliseu... PL 398 101.6 32.9 71.7 114 8 -2 0 391 30
04/05/14 Video View Almonte, Abraham SEA Straily, Dan OAK 5 O.co Coliseu... ND 419 106.4 32.4 67.0 116 13 -3 0 409 30
04/19/14 Video View Villar, Jonathan HOU Kazmir, Scott OAK 3 O.co Coliseu... JE 403 100.2 28.5 86.6 99 0 -1 0 404 9
04/20/14 Video View Gonzalez, Marwin HOU Chavez, Jesse OAK 4 O.co Coliseu... PL 368 98.2 32.8 65.5 99 0 0 0 368 27
04/21/14 Video View Choo, Shin-Soo TEX Straily, Dan OAK 1 O.co Coliseu... JE 398 106.2 22.1 78.5 64 0 -1 0 398 22
04/23/14 Video View Murphy, Donnie TEX Gray, Sonny OAK 6 O.co Coliseu... JE 361 96.7 34.4 66.2 106 4 -2 0 359 24
05/05/14 Video View Romero, Stefen SEA Kazmir, Scott OAK 5 O.co Coliseu... ND 411 109.8 25.4 114.4 76 0 -2 0 413 30
05/07/14 Video View Hart, Corey SEA Straily, Dan OAK 2 O.co Coliseu... PL 412 102.0 29.0 95.2 105 0 -2 0 414 25
05/07/14 Video View Zunino, Mike SEA Straily, Dan OAK 5 O.co Coliseu... JE 338 93.8 33.3 121.4 87 0 -2 0 340 18
05/10/14 Video View Espinosa, Danny WSH Gray, Sonny OAK 3 O.co Coliseu... PL 417 102.7 33.4 82.6 129 11 -2 0 407 27
05/12/14 Video View Abreu, Jose CHW Chavez, Jesse OAK 9 O.co Coliseu... JE 396 104.8 22.9 77.9 66 0 0 0 396 19
05/12/14 Video View Viciedo, Dayan CHW Chavez, Jesse OAK 2 O.co Coliseu... JE 393 104.0 22.4 80.2 64 0 0 0 393 9
05/14/14 Video View Beckham, Gordon CHW Milone, Tommy OAK 1 O.co Coliseu... JE 380 99.9 29.4 111.9 86 0 1 0 379 30
05/14/14 Video View Abreu, Jose CHW Gregerson, Luke OAK 8 O.co Coliseu... ND 431 115.2 25.9 123.4 79 0 2 0 429 30
06/15/14 Video View Beltran, Carlos NYY Cook, Ryan OAK 7 O.co Coliseu... JE 401 107.6 20.4 82.1 59 0 0 0 401 13
06/15/14 Video View Gardner, Brett NYY Johnson, Jim OAK 9 O.co Coliseu... JE 384 101.7 25.1 74.7 71 0 0 0 384 20
06/16/14 Video View Murphy, Donnie TEX Pomeranz, Drew OAK 4 O.co Coliseu... JE 404 101.0 26.4 94.8 88 0 -1 0 405 15
06/16/14 Video View Choice, Michael TEX Cook, Ryan OAK 5 O.co Coliseu... JE 397 99.5 31.6 97.5 112 3 -2 0 396 13
06/16/14 Video View Murphy, Donnie TEX Abad, Fernando OAK 9 O.co Coliseu... JE 339 94.6 30.7 58.2 76 0 -2 0 341 17
06/16/14 Video View Chirinos, Robinson TEX Abad, Fernando OAK 9 O.co Coliseu... PL 387 100.5 27.1 104.7 82 0 -1 0 388 26
06/17/14 Video View Odor, Rougned TEX Milone, Tommy OAK 5 O.co Coliseu... PL 388 101.3 30.9 69.6 99 0 -1 0 389 30
06/19/14 Video View Pedroia, Dustin BOS Kazmir, Scott OAK 6 O.co Coliseu... JE 367 98.1 32.3 112.9 99 0 -3 0 370 27
06/22/14 Video View Ross, David BOS Milone, Tommy OAK 2 O.co Coliseu... JE 403 103.0 23.9 97.0 75 0 -1 -1 403 13
06/22/14 Video View Napoli, Mike BOS Milone, Tommy OAK 5 O.co Coliseu... JE 390 99.8 26.6 80.1 82 0 -1 0 390 14
06/22/14 Video View Ortiz, David BOS Abad, Fernando OAK 10 O.co Coliseu... JE 405 105.1 21.8 95.5 66 0 0 0 405 12
07/06/14 Video View Tolleson, Steve TOR Doolittle, Sean OAK 9 O.co Coliseu... JE 394 101.3 25.2 99.5 77 0 0 0 394 12
07/08/14 Video View Colvin, Tyler SF Gray, Sonny OAK 7 O.co Coliseu... PL 384 100.0 33.5 68.9 111 8 -3 0 378 29
07/18/14 Video View Schoop, Jonathan BAL Samardzija, Jeff OAK 5 O.co Coliseu... PL 399 107.5 23.1 107.3 66 0 0 0 399 30
07/18/14 Video View Machado, Manny BAL Samardzija, Jeff OAK 7 O.co Coliseu... PL 378 110.8 22.3 125.4 54 0 -1 0 379 30
07/19/14 Video View Jones, Adam BAL Hammel, Jason OAK 1 O.co Coliseu... PL/L 384 98.6 35.8 105.5 126 15 -1 0 370 6
07/19/14 Video View Hardy, J.J. BAL Hammel, Jason OAK 1 O.co Coliseu... PL 393 99.7 29.3 101.5 96 0 -1 0 394 23
07/19/14 Video View Davis, Chris BAL Johnson, Jim OAK 9 O.co Coliseu... PL 403 103.9 25.8 76.1 80 0 0 0 403 29
07/22/14 Video View Hoes, L.J. HOU Abad, Fernando OAK 12 O.co Coliseu... JE 382 102.7 24.1 105.8 66 0 0 0 382 18
07/24/14 Video View Carter, Chris HOU Samardzija, Jeff OAK 4 O.co Coliseu... JE 349 98.2 28.0 125.0 67 0 1 0 348 23
08/01/14 Video View Ibanez, Raul KC Gray, Sonny OAK 5 O.co Coliseu... JE 385 98.5 27.9 79.4 86 0 0 0 386 13
08/04/14 Video View Longoria, Evan TB Samardzija, Jeff OAK 2 O.co Coliseu... JE 385 105.5 22.5 106.1 60 0 0 0 385 17
08/06/14 Video View Kiermaier, Kevin TB Gray, Sonny OAK 4 O.co Coliseu... JE 375 96.9 30.7 75.7 95 0 0 0 375 9
08/10/14 Video View Dozier, Brian MIN Hammel, Jason OAK 1 O.co Coliseu... JE 358 96.5 33.1 115.1 97 0 -1 0 359 19
08/10/14 Video View Willingham, Josh MIN Gregerson, Luke OAK 8 O.co Coliseu... JE 362 97.1 33.2 113.9 100 0 0 0 363 24
08/19/14 Video View d'Arnaud, Travis NYM Kazmir, Scott OAK 4 O.co Coliseu... JE 393 100.8 25.1 81.9 77 0 0 0 394 10
08/20/14 Video View Campbell, Eric NYM Samardzija, Jeff OAK 3 O.co Coliseu... PL 407 101.3 27.1 95.6 91 0 -1 0 407 19
08/20/14 Video View Duda, Lucas NYM Samardzija, Jeff OAK 3 O.co Coliseu... JE 408 100.2 29.4 91.4 103 2 -1 0 406 7
08/22/14 Video View Trout, Mike LAA Gray, Sonny OAK 1 O.co Coliseu... JE 385 98.4 28.5 100.8 89 0 -1 0 386 7
08/22/14 Video View Hamilton, Josh LAA Gray, Sonny OAK 4 O.co Coliseu... PL 396 101.2 27.6 77.3 88 0 -1 0 397 26
08/24/14 Video View Hamilton, Josh LAA Kazmir, Scott OAK 3 O.co Coliseu... JE 385 101.3 27.3 70.9 79 0 0 0 385 29
08/24/14 Video View Trout, Mike LAA Chavez, Jesse OAK 6 O.co Coliseu... PL 417 101.6 30.6 94.2 113 6 -1 0 412 19
06/15/14 Video View Norris, Derek OAK Nuno, Vidal NYY 1 O.co Coliseu... PL 397 102.4 27.2 105.2 85 0 -1 0 398 30
06/15/14 Video View Crisp, Coco OAK Nuno, Vidal NYY 2 O.co Coliseu... PL 362 102.5 25.6 122.4 62 0 -1 0 362 29
08/19/14 Video View Reddick, Josh OAK Germen, Gonzalez NYM 8 O.co Coliseu... JE 352 98.2 38.0 66.8 130 2 0 0 350 17
08/07/14 Video View Vogt, Stephen OAK Pino, Yohan MIN 3 O.co Coliseu... PL 401 104.7 24.2 77.0 73 0 -1 0 402 27
08/09/14 Video View Vogt, Stephen OAK Deduno, Samuel MIN 5 O.co Coliseu... PL 376 102.7 26.2 64.6 70 0 -1 0 377 28
08/09/14 Video View Norris, Derek OAK Deduno, Samuel MIN 6 O.co Coliseu... PL 410 110.0 23.8 110.6 70 0 -1 0 411 30
05/30/14 Video View Moss, Brandon OAK Richards, Garrett LAA 1 O.co Coliseu... JE 384 103.5 23.6 74.9 65 0 0 0 385 19
05/30/14 Video View Donaldson, Josh OAK LeBlanc, Wade LAA 2 O.co Coliseu... JE 372 97.4 28.3 75.4 83 0 -2 0 374 10
05/30/14 Video View Donaldson, Josh OAK LeBlanc, Wade LAA 5 O.co Coliseu... JE 409 105.4 21.1 91.9 65 0 0 0 409 2
05/31/14 Video View Blanks, Kyle OAK Skaggs, Tyler LAA 7 O.co Coliseu... JE 396 108.1 21.5 103.9 60 0 0 0 396 24
05/31/14 Video View Cespedes, Yoenis OAK Grube, Jarrett LAA 8 O.co Coliseu... PL 355 97.5 31.0 121.8 82 0 -2 0 356 29
06/01/14 Video View Lowrie, Jed OAK Weaver, Jered LAA 5 O.co Coliseu... PL 388 99.7 32.8 74.1 112 3 0 0 385 29
08/22/14 Video View Crisp, Coco OAK Santiago, Hector LAA 1 O.co Coliseu... JE 386 98.4 29.1 100.3 93 0 -1 0 388 13
08/22/14 Video View Vogt, Stephen OAK Bedrosian, Cam LAA 8 O.co Coliseu... JE 373 100.8 27.5 65.9 75 0 -1 0 374 27
08/24/14 Video View Callaspo, Alberto OAK Weaver, Jered LAA 7 O.co Coliseu... JE 375 101.8 26.5 65.9 72 0 -1 0 376 26
08/24/14 Video View Parrino, Andy OAK Weaver, Jered LAA 7 O.co Coliseu... JE 363 97.1 31.9 65.8 93 0 -1 0 363 25
08/03/14 Video View Reddick, Josh OAK Shields, James KC 6 O.co Coliseu... PL 405 103.5 24.3 81.9 76 0 -1 0 406 19
08/03/14 Video View Reddick, Josh OAK Shields, James KC 8 O.co Coliseu... PL 396 104.9 27.5 66.1 82 0 -1 0 397 30
04/18/14 Video View Callaspo, Alberto OAK Cosart, Jarred HOU 1 O.co Coliseu... JE 381 101.8 25.2 73.2 71 0 -1 0 382 22
04/18/14 Video View Reddick, Josh OAK Cosart, Jarred HOU 1 O.co Coliseu... PL 407 102.8 31.4 79.9 118 0 -3 0 410 29
04/18/14 Video View Cespedes, Yoenis OAK Clemens, Paul HOU 2 O.co Coliseu... JE 379 100.3 34.8 107.7 124 4 -4 0 379 28
04/18/14 Video View Crisp, Coco OAK Clemens, Paul HOU 5 O.co Coliseu... JE 401 101.4 25.9 83.4 84 0 -2 0 403 14
04/19/14 Video View Lowrie, Jed OAK Qualls, Chad HOU 9 O.co Coliseu... JE 352 98.0 28.5 58.9 71 0 -1 0 354 24
04/20/14 Video View Donaldson, Josh OAK Peacock, Brad HOU 1 O.co Coliseu... JE 372 102.2 25.5 114.3 66 0 0 0 372 20
07/23/14 Video View Lowrie, Jed OAK Peacock, Brad HOU 2 O.co Coliseu... PL 345 94.7 36.5 60.8 106 5 -1 0 340 17
07/23/14 Video View Cespedes, Yoenis OAK Peacock, Brad HOU 2 O.co Coliseu... JE 416 103.6 24.6 92.6 82 0 0 0 416 19
07/23/14 Video View Cespedes, Yoenis OAK Peacock, Brad HOU 4 O.co Coliseu... PL 373 99.5 33.5 113.4 108 0 -1 0 374 30
07/24/14 Video View Moss, Brandon OAK Bass, Anthony HOU 6 O.co Coliseu... JE/L 368 98.9 37.9 75.9 138 5 3 0 361 4
05/29/14 Video View Punto, Nick OAK Porcello, Rick DET 4 O.co Coliseu... JE 379 97.7 27.9 77.9 83 0 0 0 378 3
05/28/14 Video View Donaldson, Josh OAK Nathan, Joe DET 9 O.co Coliseu... ND 394 105.0 31.7 120.2 101 0 -1 0 395 30
05/27/14 Video View Jaso, John OAK Scherzer, Max DET 4 O.co Coliseu... PL 363 104.4 24.8 54.6 59 0 0 0 363 29
05/26/14 Video View Norris, Derek OAK Coke, Phil DET 8 O.co Coliseu... PL 421 106.9 22.8 96.7 74 0 0 0 421 27
05/26/14 Video View Cespedes, Yoenis OAK Smyly, Drew DET 3 O.co Coliseu... PL 370 99.5 32.4 118.9 95 0 0 0 370 30
05/26/14 Video View Donaldson, Josh OAK Smyly, Drew DET 3 O.co Coliseu... JE 352 110.5 19.9 128.6 43 0 0 0 352 17
05/26/14 Video View Blanks, Kyle OAK Smyly, Drew DET 2 O.co Coliseu... JE 400 101.7 25.3 98.2 79 0 0 0 400 12
05/26/14 Video View Moss, Brandon OAK Smyly, Drew DET 2 O.co Coliseu... JE 396 99.6 26.5 85.0 84 0 0 0 396 3
04/02/14 Video View Callaspo, Alberto OAK Kluber, Corey CLE 3 O.co Coliseu... JE 369 100.4 27.5 64.5 74 0 -1 0 370 26
05/12/14 Video View Donaldson, Josh OAK Danks, John CHW 5 O.co Coliseu... PL 370 104.6 25.3 123.4 63 0 0 0 370 30
05/13/14 Video View Reddick, Josh OAK Carroll, Scott CHW 5 O.co Coliseu... JE 396 99.0 31.7 83.9 111 1 1 0 395 9
05/13/14 Video View Moss, Brandon OAK Francisco, Frank CHW 6 O.co Coliseu... PL 380 99.6 36.1 66.8 121 14 2 0 366 26
05/13/14 Video View Moss, Brandon OAK Lindstrom, Matt CHW 8 O.co Coliseu... ND 436 106.0 29.6 81.9 115 4 1 0 431 30
05/14/14 Video View Jaso, John OAK Rienzo, Andre CHW 1 O.co Coliseu... PL 393 98.7 33.0 80.8 115 3 2 0 387 10
05/14/14 Video View Donaldson, Josh OAK Rienzo, Andre CHW 4 O.co Coliseu... JE/L 358 95.5 36.0 65.9 110 6 4 0 349 14
06/19/14 Video View Cespedes, Yoenis OAK Peavy, Jake BOS 3 O.co Coliseu... JE 396 99.7 28.2 97.2 93 0 -1 0 398 11
06/20/14 Video View Donaldson, Josh OAK Doubront, Felix BOS 1 O.co Coliseu... JE 396 109.8 22.3 110.9 60 0 0 0 396 30
06/22/14 Video View Vogt, Stephen OAK Uehara, Koji BOS 9 O.co Coliseu... JE 351 99.1 26.8 58.1 65 0 0 0 351 20
06/22/14 Video View Jaso, John OAK Uehara, Koji BOS 9 O.co Coliseu... PL 377 100.9 29.4 64.3 85 0 -1 0 378 29
07/18/14 Video View Donaldson, Josh OAK Britton, Zach BAL 9 O.co Coliseu... JE 403 100.5 27.8 94.7 94 0 -1 0 404 12
07/18/14 Video View Norris, Derek OAK Tillman, Chris BAL 5 O.co Coliseu... JE 382 106.5 23.6 114.2 62 0 -1 0 383 30
07/19/14 Video View Moss, Brandon OAK Chen, Wei-Yin BAL 3 O.co Coliseu... PL 403 102.3 34.7 71.6 125 16 -1 0 388 30


About HitTracker | Contact Us
© 2006-2009 HitTrackerOnline